createdAt,value
2022-12-19T00:01:40.625Z,98938.81
2022-12-19T00:04:11.287Z,98941.25
2022-12-19T00:06:43.556Z,98936.72
2022-12-19T00:09:12.516Z,98939.31
2022-12-19T00:11:40.658Z,98938.34
2022-12-19T00:14:12.189Z,98915.69
2022-12-19T00:16:39.755Z,98901.06
2022-12-19T00:19:07.747Z,98899.81
2022-12-19T00:21:35.968Z,98944.34
2022-12-19T00:24:03.809Z,98928.47
2022-12-19T00:26:39.668Z,98934.44
2022-12-19T00:29:14.060Z,98929.00
2022-12-19T00:31:43.301Z,98915.75
2022-12-19T00:34:10.987Z,98924.03
2022-12-19T00:36:38.463Z,98935.59
2022-12-19T00:39:08.117Z,98915.94
2022-12-19T00:41:41.380Z,98907.22
2022-12-19T00:44:16.772Z,98906.59
2022-12-19T00:46:53.012Z,98890.28
2022-12-19T00:49:20.756Z,98911.84
2022-12-19T00:51:48.244Z,98912.00
2022-12-19T00:54:16.210Z,98909.00
2022-12-19T00:56:43.767Z,98926.56
2022-12-19T00:59:11.290Z,98920.38
2022-12-19T01:01:41.060Z,98919.91
2022-12-19T01:04:30.773Z,98927.94
2022-12-19T01:07:02.658Z,98916.94
2022-12-19T01:09:31.026Z,98919.56
2022-12-19T01:12:16.431Z,98911.72
2022-12-19T01:14:44.027Z,98920.59
2022-12-19T01:17:11.574Z,98909.09
2022-12-19T01:19:44.340Z,98902.53
2022-12-19T01:22:12.463Z,98903.66
2022-12-19T01:24:40.548Z,98901.22
2022-12-19T01:27:08.354Z,98899.59
2022-12-19T01:29:37.716Z,98904.47
2022-12-19T01:32:19.496Z,98901.47
2022-12-19T01:34:48.552Z,98908.19
2022-12-19T01:37:15.993Z,98900.16
2022-12-19T01:39:46.154Z,98904.41
2022-12-19T01:42:16.005Z,98900.78
2022-12-19T01:45:05.918Z,98903.00
2022-12-19T01:47:36.640Z,98909.59
2022-12-19T01:50:06.421Z,98897.72
2022-12-19T01:52:34.022Z,98904.84
2022-12-19T01:55:02.198Z,98904.09
2022-12-19T01:57:30.526Z,98904.44
2022-12-19T02:00:01.302Z,98915.25
2022-12-19T02:02:33.547Z,98912.91
2022-12-19T02:05:01.660Z,98914.44
2022-12-19T02:07:31.907Z,98900.97
2022-12-19T02:09:59.713Z,98906.88
2022-12-19T02:12:29.249Z,98894.88
2022-12-19T02:15:02.524Z,98898.50
2022-12-19T02:17:39.838Z,98911.78
2022-12-19T02:20:40.254Z,98903.28
2022-12-19T02:23:29.139Z,98910.31
2022-12-19T02:26:11.813Z,98908.38
2022-12-19T02:28:56.081Z,98905.22
2022-12-19T02:31:30.878Z,98902.84
2022-12-19T02:34:05.830Z,98912.78
2022-12-19T02:36:43.479Z,98912.28
2022-12-19T02:39:18.423Z,98916.03
2022-12-19T02:41:50.368Z,98899.56
2022-12-19T02:44:26.875Z,98906.16
2022-12-19T02:46:57.540Z,98916.31
2022-12-19T02:49:28.842Z,98931.72
2022-12-19T02:51:58.729Z,98914.41
2022-12-19T02:54:26.426Z,98928.13
2022-12-19T02:57:00.414Z,98919.06
2022-12-19T02:59:41.484Z,98921.81
2022-12-19T03:02:23.166Z,98884.09
2022-12-19T03:04:56.417Z,98897.38
2022-12-19T03:07:31.374Z,98874.03
2022-12-19T03:10:09.294Z,98877.50
2022-12-19T03:12:44.462Z,98890.69
2022-12-19T03:15:13.576Z,98870.31
2022-12-19T03:17:43.480Z,98875.56
2022-12-19T03:20:20.134Z,98846.13
2022-12-19T03:22:47.760Z,98865.78
2022-12-19T03:25:15.660Z,98874.94
2022-12-19T03:27:43.846Z,98867.34
2022-12-19T03:30:13.927Z,98867.19
2022-12-19T03:32:44.592Z,98890.38
2022-12-19T03:35:15.512Z,98909.78
2022-12-19T03:37:45.440Z,98888.88
2022-12-19T03:40:17.120Z,98886.50
2022-12-19T03:43:05.491Z,98866.25
2022-12-19T03:45:44.356Z,98845.50
2022-12-19T03:48:18.568Z,98831.59
2022-12-19T03:50:54.349Z,98813.56
2022-12-19T03:53:34.566Z,98813.41
2022-12-19T03:56:11.055Z,98807.09
2022-12-19T03:58:43.803Z,98812.38
2022-12-19T04:01:11.423Z,98844.66
2022-12-19T04:03:40.439Z,98872.94
2022-12-19T04:06:08.038Z,98887.53
2022-12-19T04:08:37.165Z,98871.78
2022-12-19T04:11:08.902Z,98909.47
2022-12-19T04:13:40.978Z,98864.97
2022-12-19T04:16:16.265Z,98868.03
2022-12-19T04:18:51.727Z,98859.72
2022-12-19T04:21:24.117Z,98865.00
2022-12-19T04:23:58.297Z,98893.28
2022-12-19T04:26:27.503Z,98880.53
2022-12-19T04:28:58.677Z,98857.00
2022-12-19T04:31:26.429Z,98810.84
2022-12-19T04:33:55.262Z,98872.34
2022-12-19T04:36:22.995Z,98860.75
2022-12-19T04:38:50.509Z,98877.22
2022-12-19T04:41:18.001Z,98869.25
2022-12-19T04:43:45.499Z,98887.59
2022-12-19T04:46:12.980Z,98885.44
2022-12-19T04:48:40.484Z,98884.19
2022-12-19T04:51:09.346Z,98879.84
2022-12-19T04:53:36.908Z,98881.78
2022-12-19T04:56:05.394Z,98869.25
2022-12-19T04:58:35.676Z,98868.50
2022-12-19T05:01:04.210Z,98857.19
2022-12-19T05:03:31.954Z,98849.53
2022-12-19T05:06:05.608Z,98842.97
2022-12-19T05:08:35.768Z,98833.16
2022-12-19T05:11:04.723Z,98829.09
2022-12-19T05:13:32.330Z,98841.97
2022-12-19T05:16:00.915Z,98840.69
2022-12-19T05:18:29.523Z,98837.41
2022-12-19T05:20:57.551Z,98843.06
2022-12-19T05:23:25.519Z,98847.66
2022-12-19T05:25:54.485Z,98839.91
2022-12-19T05:28:22.130Z,98847.97
2022-12-19T05:30:52.513Z,98852.09
2022-12-19T05:33:20.276Z,98863.38
2022-12-19T05:35:49.278Z,98871.66
2022-12-19T05:38:16.739Z,98870.47
2022-12-19T05:43:34.174Z,98860.22
2022-12-19T05:46:01.639Z,98859.97
2022-12-19T05:48:29.279Z,98852.97
2022-12-19T05:50:57.020Z,98857.72
2022-12-19T05:53:26.146Z,98875.81
2022-12-19T05:55:53.882Z,98871.56
2022-12-19T05:58:21.356Z,98860.34
2022-12-19T06:00:50.146Z,98854.72
2022-12-19T06:03:17.664Z,98859.06
2022-12-19T06:05:45.226Z,98863.13
2022-12-19T06:08:12.687Z,98861.09
2022-12-19T06:10:40.147Z,98860.75
2022-12-19T06:13:09.141Z,98856.84
2022-12-19T06:15:36.572Z,98861.19
2022-12-19T06:18:05.402Z,98864.81
2022-12-19T06:20:32.882Z,98854.91
2022-12-19T06:23:00.465Z,98854.84
2022-12-19T06:25:27.928Z,98860.84
2022-12-19T06:27:55.366Z,98861.63
2022-12-19T06:30:22.833Z,98860.09
2022-12-19T06:32:50.466Z,98858.03
2022-12-19T06:35:19.309Z,98849.75
2022-12-19T06:37:49.655Z,98849.06
2022-12-19T06:40:37.748Z,98849.16
2022-12-19T06:43:04.235Z,98846.44
2022-12-19T06:45:32.024Z,98848.22
2022-12-19T06:47:59.528Z,98840.44
2022-12-19T06:50:28.697Z,98838.56
2022-12-19T06:52:56.401Z,98847.66
2022-12-19T06:55:24.050Z,98835.25
2022-12-19T06:57:51.549Z,98845.50
2022-12-19T07:00:20.388Z,98839.09
2022-12-19T07:02:51.368Z,98834.53
2022-12-19T07:05:19.592Z,98832.41
2022-12-19T07:07:48.390Z,98838.72
2022-12-19T07:10:16.553Z,98839.19
2022-12-19T07:12:44.009Z,98842.19
2022-12-19T07:15:12.060Z,98835.34
2022-12-19T07:17:39.842Z,98846.00
2022-12-19T07:20:08.389Z,98838.41
2022-12-19T07:22:37.581Z,98834.91
2022-12-19T07:25:07.684Z,98825.41
2022-12-19T07:27:36.264Z,98824.16
2022-12-19T07:30:04.433Z,98809.53
2022-12-19T07:32:31.934Z,98818.53
2022-12-19T07:34:59.452Z,98820.75
2022-12-19T07:37:26.900Z,98820.28
2022-12-19T07:39:54.346Z,98817.00
2022-12-19T07:42:23.148Z,98824.31
2022-12-19T07:44:50.594Z,98823.91
2022-12-19T07:47:18.236Z,98816.81
2022-12-19T07:49:45.693Z,98829.97
2022-12-19T07:52:13.174Z,98827.53
2022-12-19T07:54:40.902Z,98815.41
2022-12-19T07:57:08.359Z,98811.00
2022-12-19T07:59:39.183Z,98816.69
2022-12-19T08:02:07.279Z,98810.22
2022-12-19T08:04:35.639Z,98801.06
2022-12-19T08:07:03.249Z,98812.19
2022-12-19T08:09:30.802Z,98819.22
2022-12-19T08:11:59.473Z,98818.75
2022-12-19T08:14:26.916Z,98826.66
2022-12-19T08:17:19.779Z,98837.72
2022-12-19T08:19:43.116Z,98832.91
2022-12-19T08:22:10.608Z,98854.25
2022-12-19T08:24:40.798Z,98839.66
2022-12-19T08:27:08.278Z,98833.75
2022-12-19T08:29:35.787Z,98830.28
2022-12-19T08:32:04.776Z,98833.22
2022-12-19T08:34:32.749Z,98820.81
2022-12-19T08:37:00.265Z,98830.28
2022-12-19T08:39:27.721Z,98836.13
2022-12-19T08:41:55.164Z,98831.84
2022-12-19T08:44:22.768Z,98827.97
2022-12-19T08:46:50.692Z,98814.84
2022-12-19T08:49:20.451Z,98818.75
2022-12-19T08:51:48.069Z,98806.38
2022-12-19T08:54:15.503Z,98812.50
2022-12-19T08:56:46.289Z,98812.13
2022-12-19T08:59:15.465Z,98815.03
2022-12-19T09:01:49.721Z,98807.81
2022-12-19T09:05:53.215Z,98811.78
2022-12-19T09:07:06.044Z,98815.13
2022-12-19T09:09:33.756Z,98820.97
2022-12-19T09:12:01.222Z,98817.22
2022-12-19T09:14:28.709Z,98824.56
2022-12-19T09:16:56.395Z,98831.38
2022-12-19T09:19:27.983Z,98837.41
2022-12-19T09:21:55.436Z,98828.66
2022-12-19T09:24:22.867Z,98826.16
2022-12-19T09:26:50.405Z,98818.06
2022-12-19T09:29:19.870Z,98813.84
2022-12-19T09:31:55.497Z,98819.84
2022-12-19T09:34:24.421Z,98814.22
2022-12-19T09:36:59.738Z,98831.00
2022-12-19T09:39:27.194Z,98837.69
2022-12-19T09:42:11.785Z,98826.78
2022-12-19T09:44:53.093Z,98826.63
2022-12-19T09:47:25.713Z,98828.22
2022-12-19T09:49:54.801Z,98823.59
2022-12-19T09:52:32.801Z,98809.59
2022-12-19T09:55:06.650Z,98811.84
2022-12-19T09:57:41.311Z,98810.53
2022-12-19T10:00:12.808Z,98814.38
2022-12-19T10:02:47.352Z,98815.78
2022-12-19T10:06:01.053Z,98814.09
2022-12-19T10:08:18.656Z,98813.72
2022-12-19T10:12:39.325Z,98805.97
2022-12-19T10:14:09.204Z,98798.09
2022-12-19T10:17:22.165Z,98795.81
2022-12-19T10:19:48.777Z,98809.25
2022-12-19T10:22:25.647Z,98807.56
2022-12-19T10:25:12.588Z,98805.56
2022-12-19T10:27:58.922Z,98796.88
2022-12-19T10:30:31.768Z,98789.63
2022-12-19T10:33:20.207Z,98792.88
2022-12-19T10:35:54.190Z,98795.22
2022-12-19T10:38:27.916Z,98789.63
2022-12-19T10:41:12.479Z,98798.03
2022-12-19T10:43:49.896Z,98802.28
2022-12-19T10:46:22.488Z,98828.75
2022-12-19T10:48:52.409Z,98812.69
2022-12-19T10:51:24.900Z,98815.59
2022-12-19T10:53:57.275Z,98793.25
2022-12-19T10:56:36.741Z,98772.56
2022-12-19T10:59:16.255Z,98764.56
2022-12-19T11:01:44.695Z,98771.56
2022-12-19T11:04:19.787Z,98755.13
2022-12-19T11:06:51.145Z,98754.19
2022-12-19T11:09:22.103Z,98742.59
2022-12-19T11:16:18.647Z,98748.28
2022-12-19T11:19:28.772Z,98757.06
2022-12-19T11:23:21.506Z,98758.56
2022-12-19T11:29:18.341Z,98742.75
2022-12-19T11:29:18.523Z,98738.47
2022-12-19T11:30:09.515Z,98744.88
2022-12-19T11:30:39.207Z,98736.78
2022-12-19T11:34:35.925Z,98719.91
2022-12-19T11:37:16.681Z,98727.50
2022-12-19T11:39:48.937Z,98712.97
2022-12-19T11:42:23.984Z,98722.28
2022-12-19T11:45:01.943Z,98712.38
2022-12-19T11:47:36.424Z,98707.09
2022-12-19T11:50:11.709Z,98694.63
2022-12-19T11:55:37.437Z,98688.25
2022-12-19T11:58:04.902Z,98685.69
2022-12-19T12:00:34.761Z,98685.78
2022-12-19T12:03:21.400Z,98687.03
2022-12-19T12:05:49.571Z,98682.22
2022-12-19T12:11:05.303Z,98697.63
2022-12-19T12:19:40.617Z,98688.22
2022-12-19T12:22:12.005Z,98675.25
2022-12-19T12:31:09.854Z,98664.00
2022-12-19T12:31:11.743Z,98658.59
2022-12-19T12:31:38.591Z,98643.09
2022-12-19T12:31:45.376Z,98652.69
2022-12-19T12:31:51.724Z,98660.28
2022-12-19T12:35:31.722Z,98636.97
2022-12-19T12:38:35.417Z,98646.00
2022-12-19T12:41:17.999Z,98652.97
2022-12-19T12:43:58.594Z,98656.97
2022-12-19T12:46:33.327Z,98663.97
2022-12-19T12:49:04.971Z,98662.16
2022-12-19T12:51:35.109Z,98638.59
2022-12-19T12:54:07.372Z,98641.66
2022-12-19T12:56:36.367Z,98633.03
2022-12-19T12:59:08.296Z,98634.06
2022-12-19T13:01:38.049Z,98625.38
2022-12-19T13:04:19.007Z,98611.81
2022-12-19T13:07:05.331Z,98602.44
2022-12-19T13:09:39.471Z,98603.44
2022-12-19T13:12:36.415Z,98616.53
2022-12-19T13:15:21.241Z,98616.72
2022-12-19T13:18:09.110Z,98606.41
2022-12-19T13:20:43.889Z,98599.53
2022-12-19T13:23:24.621Z,98601.06
2022-12-19T13:25:54.580Z,98611.78
2022-12-19T13:28:49.042Z,98613.91
2022-12-19T13:31:22.516Z,98619.63
2022-12-19T13:34:18.352Z,98626.38
2022-12-19T13:40:01.588Z,98631.03
2022-12-19T13:40:11.398Z,98635.44
2022-12-19T13:43:10.383Z,98637.25
2022-12-19T13:45:42.250Z,98622.03
2022-12-19T13:48:16.201Z,98615.59
2022-12-19T13:50:47.600Z,98617.84
2022-12-19T13:53:18.507Z,98613.69
2022-12-19T13:55:47.654Z,98615.97
2022-12-19T13:58:29.045Z,98618.97
2022-12-19T14:00:59.619Z,98614.25
2022-12-19T14:03:35.720Z,98614.03
2022-12-19T14:06:16.475Z,98611.22
2022-12-19T14:09:20.208Z,98615.41
2022-12-19T14:12:22.251Z,98607.06
2022-12-19T14:15:02.135Z,98604.91
2022-12-19T14:17:38.415Z,98601.00
2022-12-19T14:22:01.819Z,98599.06
2022-12-19T14:23:05.715Z,98595.09
2022-12-19T14:28:15.068Z,98595.22
2022-12-19T14:28:40.808Z,98605.00
2022-12-19T14:31:16.083Z,98601.84
2022-12-19T14:34:04.762Z,98609.13
2022-12-19T14:36:37.379Z,98609.66
2022-12-19T14:39:24.577Z,98602.91
2022-12-19T14:42:13.240Z,98608.81
2022-12-19T14:52:51.829Z,98605.00
2022-12-19T14:54:09.341Z,98601.19
2022-12-19T14:54:10.841Z,98595.34
2022-12-19T14:54:52.483Z,98593.50
2022-12-19T14:59:01.555Z,98597.63
2022-12-19T15:01:33.400Z,98601.88
2022-12-19T15:04:52.889Z,98604.66
2022-12-19T15:07:06.946Z,98601.88
2022-12-19T15:11:03.011Z,98596.41
2022-12-19T15:14:48.422Z,98598.16
2022-12-19T15:15:41.147Z,98602.31
2022-12-19T15:18:24.564Z,98609.09
2022-12-19T15:20:53.645Z,98609.94
2022-12-19T15:23:22.596Z,98601.97
2022-12-19T15:26:07.349Z,98599.84
2022-12-19T15:28:41.213Z,98597.22
2022-12-19T15:31:18.701Z,98590.53
2022-12-19T15:34:23.270Z,98592.03
2022-12-19T15:36:34.939Z,98595.34
2022-12-19T15:39:03.587Z,98598.19
2022-12-19T15:41:31.501Z,98597.97
2022-12-19T15:44:04.180Z,98600.31
2022-12-19T15:46:32.743Z,98597.59
2022-12-19T15:49:01.973Z,98595.03
2022-12-19T15:51:29.289Z,98588.31
2022-12-19T15:54:04.198Z,98589.47
2022-12-19T15:56:46.565Z,98580.72
2022-12-19T15:59:24.534Z,98562.28
2022-12-19T16:01:52.896Z,98570.41
2022-12-19T16:04:23.148Z,98564.91
2022-12-19T16:06:50.769Z,98567.44
2022-12-19T16:09:22.401Z,98581.47
2022-12-19T16:11:51.245Z,98571.97
2022-12-19T16:14:19.278Z,98575.34
2022-12-19T16:16:51.119Z,98575.88
2022-12-19T16:19:26.449Z,98570.09
2022-12-19T16:21:54.779Z,98558.34
2022-12-19T16:24:23.043Z,98563.63
2022-12-19T16:26:54.254Z,98560.16
2022-12-19T16:29:24.317Z,98556.34
2022-12-19T16:31:53.036Z,98556.72
2022-12-19T16:34:23.883Z,98543.38
2022-12-19T16:36:53.546Z,98536.53
2022-12-19T16:39:21.014Z,98543.59
2022-12-19T16:41:48.542Z,98546.22
2022-12-19T16:44:19.427Z,98544.09
2022-12-19T16:46:51.150Z,98533.28
2022-12-19T16:49:20.508Z,98549.22
2022-12-19T16:51:48.671Z,98544.75
2022-12-19T16:54:18.402Z,98543.72
2022-12-19T16:56:49.158Z,98538.31
2022-12-19T16:59:19.766Z,98528.63
2022-12-19T17:01:48.463Z,98529.69
2022-12-19T17:04:18.258Z,98528.41
2022-12-19T17:06:45.836Z,98535.81
2022-12-19T17:09:15.631Z,98536.03
2022-12-19T17:11:47.881Z,98532.44
2022-12-19T17:14:18.726Z,98532.75
2022-12-19T17:16:46.637Z,98530.78
2022-12-19T17:19:22.664Z,98529.31
2022-12-19T17:21:51.275Z,98536.47
2022-12-19T17:24:19.655Z,98522.56
2022-12-19T17:26:48.875Z,98533.84
2022-12-19T17:29:16.393Z,98535.00
2022-12-19T17:31:44.116Z,98525.69
2022-12-19T17:34:18.147Z,98529.84
2022-12-19T17:36:46.169Z,98522.91
2022-12-19T17:39:20.016Z,98518.25
2022-12-19T17:41:52.093Z,98530.25
2022-12-19T17:44:20.227Z,98537.53
2022-12-19T17:46:48.516Z,98528.63
2022-12-19T17:49:18.076Z,98531.16
2022-12-19T17:51:49.660Z,98526.88
2022-12-19T17:54:17.463Z,98531.66
2022-12-19T17:56:44.897Z,98521.72
2022-12-19T17:59:13.690Z,98515.72
2022-12-19T18:01:42.614Z,98523.75
2022-12-19T18:04:14.267Z,98529.22
2022-12-19T18:06:42.488Z,98525.63
2022-12-19T18:09:18.530Z,98525.75
2022-12-19T18:11:46.157Z,98529.22
2022-12-19T18:14:16.141Z,98544.19
2022-12-19T18:16:44.836Z,98544.41
2022-12-19T18:19:18.340Z,98545.25
2022-12-19T18:21:46.070Z,98542.41
2022-12-19T18:24:16.199Z,98541.34
2022-12-19T18:26:44.114Z,98548.22
2022-12-19T18:29:11.857Z,98541.34
2022-12-19T18:31:50.380Z,98539.47
2022-12-19T18:34:21.430Z,98536.50
2022-12-19T18:36:48.926Z,98542.75
2022-12-19T18:39:21.951Z,98553.94
2022-12-19T18:41:50.001Z,98556.25
2022-12-19T18:44:18.065Z,98565.53
2022-12-19T18:46:49.600Z,98563.94
2022-12-19T18:49:18.412Z,98557.75
2022-12-19T18:51:49.113Z,98561.94
2022-12-19T18:54:18.692Z,98565.75
2022-12-19T18:56:46.882Z,98567.00
2022-12-19T18:59:14.658Z,98573.00
2022-12-19T19:01:43.897Z,98573.84
2022-12-19T19:04:16.840Z,98565.97
2022-12-19T19:06:50.843Z,98567.03
2022-12-19T19:09:20.042Z,98570.72
2022-12-19T19:11:47.576Z,98572.63
2022-12-19T19:14:15.078Z,98574.28
2022-12-19T19:16:42.843Z,98566.63
2022-12-19T19:19:15.277Z,98550.06
2022-12-19T19:21:43.005Z,98552.28
2022-12-19T19:24:14.451Z,98542.75
2022-12-19T19:26:41.976Z,98544.50
2022-12-19T19:29:10.346Z,98530.50
2022-12-19T19:31:40.265Z,98535.03
2022-12-19T19:34:13.136Z,98534.47
2022-12-19T19:36:46.302Z,98540.16
2022-12-19T19:39:14.145Z,98534.72
2022-12-19T19:41:41.723Z,98534.88
2022-12-19T19:44:09.222Z,98533.84
2022-12-19T19:46:37.303Z,98540.72
2022-12-19T19:49:04.841Z,98535.06
2022-12-19T19:51:32.359Z,98535.38
2022-12-19T19:54:01.124Z,98533.75
2022-12-19T19:56:28.673Z,98529.50
2022-12-19T19:58:59.390Z,98533.19
2022-12-19T20:01:27.270Z,98527.63
2022-12-19T20:03:54.945Z,98535.75
2022-12-19T20:06:22.497Z,98538.94
2022-12-19T20:08:50.303Z,98537.16
2022-12-19T20:11:20.354Z,98534.72
2022-12-19T20:13:48.007Z,98539.97
2022-12-19T20:16:17.899Z,98530.16
2022-12-19T20:18:49.311Z,98531.34
2022-12-19T20:21:18.182Z,98532.28
2022-12-19T20:23:45.617Z,98523.75
2022-12-19T20:26:16.133Z,98531.66
2022-12-19T20:28:48.808Z,98535.94
2022-12-19T20:31:17.699Z,98534.31
2022-12-19T20:33:46.085Z,98533.13
2022-12-19T20:36:14.183Z,98536.63
2022-12-19T20:38:41.939Z,98543.06
2022-12-19T20:41:09.668Z,98530.34
2022-12-19T20:43:38.358Z,98526.56
2022-12-19T20:46:09.462Z,98529.88
2022-12-19T20:48:37.540Z,98532.28
2022-12-19T20:51:06.324Z,98526.31
2022-12-19T20:53:35.718Z,98534.00
2022-12-19T20:56:05.556Z,98525.25
2022-12-19T20:58:35.149Z,98529.88
2022-12-19T21:01:06.158Z,98524.41
2022-12-19T21:03:35.666Z,98530.41
2022-12-19T21:06:03.780Z,98520.06
2022-12-19T21:08:32.168Z,98530.09
2022-12-19T21:11:01.169Z,98529.97
2022-12-19T21:13:29.519Z,98524.47
2022-12-19T21:15:58.657Z,98530.28
2022-12-19T21:18:27.186Z,98528.72
2022-12-19T21:20:56.919Z,98532.00
2022-12-19T21:23:26.177Z,98531.28
2022-12-19T21:25:53.866Z,98536.41
2022-12-19T21:28:21.319Z,98540.72
2022-12-19T21:30:56.247Z,98544.53
2022-12-19T21:33:24.168Z,98536.22
2022-12-19T21:35:51.628Z,98541.88
2022-12-19T21:38:20.421Z,98537.91
2022-12-19T21:40:47.945Z,98531.97
2022-12-19T21:43:15.476Z,98536.25
2022-12-19T21:45:44.196Z,98531.44
2022-12-19T21:48:11.665Z,98534.28
2022-12-19T21:50:39.138Z,98538.38
2022-12-19T21:53:06.639Z,98532.63
2022-12-19T21:55:35.716Z,98526.16
2022-12-19T21:58:03.223Z,98528.56
2022-12-19T22:00:30.727Z,98523.69
2022-12-19T22:03:15.128Z,98523.44
2022-12-19T22:05:43.170Z,98520.88
2022-12-19T22:08:11.698Z,98516.09
2022-12-19T22:10:40.660Z,98506.72
2022-12-19T22:13:08.146Z,98506.34
2022-12-19T22:15:36.583Z,98508.19
2022-12-19T22:18:04.312Z,98511.31
2022-12-19T22:20:31.784Z,98508.19
2022-12-19T22:22:59.221Z,98505.53
2022-12-19T22:25:26.702Z,98489.38
2022-12-19T22:27:57.290Z,98488.88
2022-12-19T22:30:24.748Z,98492.75
2022-12-19T22:32:52.237Z,98490.97
2022-12-19T22:35:19.743Z,98486.97
2022-12-19T22:37:47.241Z,98488.00
2022-12-19T22:40:14.947Z,98495.41
2022-12-19T22:42:42.431Z,98510.22
2022-12-19T22:45:12.046Z,98487.84
2022-12-19T22:47:41.822Z,98502.09
2022-12-19T22:50:10.340Z,98503.72
2022-12-19T22:52:38.087Z,98490.66
2022-12-19T22:55:06.614Z,98497.28
2022-12-19T22:57:34.918Z,98506.91
2022-12-19T23:00:02.485Z,98492.34
2022-12-19T23:02:31.390Z,98489.84
2022-12-19T23:04:58.935Z,98491.94
2022-12-19T23:07:26.409Z,98492.19
2022-12-19T23:09:53.849Z,98482.16
2022-12-19T23:12:21.516Z,98476.66
2022-12-19T23:14:49.193Z,98478.75
2022-12-19T23:17:16.755Z,98475.03
2022-12-19T23:19:45.607Z,98473.16
2022-12-19T23:22:13.033Z,98469.41
2022-12-19T23:24:41.373Z,98483.72
2022-12-19T23:27:08.980Z,98481.63
2022-12-19T23:29:36.438Z,98470.56
2022-12-19T23:32:03.923Z,98470.09
2022-12-19T23:34:31.374Z,98485.09
2022-12-19T23:37:10.695Z,98483.78
2022-12-19T23:39:38.895Z,98474.84
2022-12-19T23:42:06.452Z,98478.91
2022-12-19T23:44:34.036Z,98486.81
2022-12-19T23:47:03.755Z,98491.09
2022-12-19T23:49:32.292Z,98477.22
2022-12-19T23:52:01.208Z,98483.25
2022-12-19T23:54:28.720Z,98483.25
2022-12-19T23:56:56.224Z,98478.75
2022-12-19T23:59:23.711Z,98470.22
